Time;durP1;ratioP1;P1;durP2;ratioP2;P2;SDS_P1;SDS_P2;PMS_P1;PMS_P2;Temp;Humidity;BMP_temperature;BMP_pressure;BME280_temperature;BME280_humidity;BME280_pressure;Samples;Min_cycle;Max_cycle;Signal;HPM_P1;HPM_P2
2022/04/16 00:00:00;;;;;;;24.80;9.90;;;;;;;5.91;85.88;101180.53;105995;1271;23186;-58
2022/04/16 00:02:34;;;;;;;21.40;9.80;;;;;;;5.85;85.72;101184.11;106048;1271;23207;-57
2022/04/16 00:05:07;;;;;;;26.30;9.50;;;;;;;5.81;85.76;101188.51;105968;1271;22593;-59
2022/04/16 00:07:39;;;;;;;20.30;6.90;;;;;;;5.80;85.82;101194.08;106403;1269;22778;-63
2022/04/16 00:10:12;;;;;;;19.50;7.60;;;;;;;5.77;85.91;101194.13;105616;1270;22525;-63
2022/04/16 00:12:44;;;;;;;22.20;7.70;;;;;;;5.74;85.88;101198.37;105902;1270;22550;-64
2022/04/16 00:15:15;;;;;;;23.70;8.10;;;;;;;5.72;85.95;101200.95;105753;1270;22525;-65
2022/04/16 00:17:49;;;;;;;23.80;9.10;;;;;;;5.70;85.89;101199.16;105799;1271;25328;-64
2022/04/16 00:20:24;;;;;;;25.30;7.80;;;;;;;5.69;86.00;101200.44;105683;1271;24319;-63
2022/04/16 00:22:56;;;;;;;20.70;7.50;;;;;;;5.70;86.05;101202.95;105717;1271;22605;-64
2022/04/16 00:25:28;;;;;;;19.30;8.50;;;;;;;5.67;85.94;101201.17;105758;1271;22556;-63
2022/04/16 00:28:00;;;;;;;21.80;7.30;;;;;;;5.64;85.87;101204.88;105829;1271;24308;-65
2022/04/16 00:30:37;;;;;;;17.70;7.40;;;;;;;5.57;86.06;101205.16;105830;1271;25327;-65
2022/04/16 00:33:12;;;;;;;21.70;5.80;;;;;;;5.52;85.96;101207.46;105719;1271;22624;-64
2022/04/16 00:35:44;;;;;;;21.20;7.20;;;;;;;5.47;86.03;101206.98;105815;1271;24243;-62
2022/04/16 00:38:16;;;;;;;19.30;7.00;;;;;;;5.43;86.02;101209.59;105657;1271;25445;-62
2022/04/16 00:40:47;;;;;;;17.20;6.80;;;;;;;5.39;86.10;101212.89;105619;1273;22831;-64
2022/04/16 00:43:27;;;;;;;19.30;7.10;;;;;;;5.31;86.20;101216.99;105695;1271;25426;-63
2022/04/16 00:45:59;;;;;;;17.80;6.10;;;;;;;5.23;86.20;101216.64;105685;1271;22530;-64
2022/04/16 00:48:31;;;;;;;16.00;5.20;;;;;;;5.16;86.25;101225.54;105998;1271;22522;-63
2022/04/16 00:51:02;;;;;;;16.70;5.50;;;;;;;5.11;86.16;101225.83;105764;1271;24337;-64
2022/04/16 00:53:34;;;;;;;17.40;4.70;;;;;;;5.07;85.89;101227.32;105685;1271;24323;-66
2022/04/16 00:56:07;;;;;;;13.00;4.00;;;;;;;5.03;85.70;101226.20;106075;1271;24740;-64
2022/04/16 00:58:39;;;;;;;12.70;3.50;;;;;;;5.00;85.81;101228.93;105786;1271;22624;-64
2022/04/16 01:01:11;;;;;;;16.00;4.70;;;;;;;4.96;85.62;101228.83;105804;1271;25258;-64
2022/04/16 01:03:45;;;;;;;14.60;5.20;;;;;;;4.93;85.73;101231.70;106092;1271;25534;-64
2022/04/16 01:06:17;;;;;;;14.70;3.90;;;;;;;4.92;85.61;101242.87;105862;1271;24315;-64
2022/04/16 01:08:48;;;;;;;13.90;4.70;;;;;;;4.87;85.82;101242.23;105648;1271;22775;-64
2022/04/16 01:11:20;;;;;;;14.40;4.60;;;;;;;4.85;85.91;101251.52;105833;1271;24323;-64
2022/04/16 01:13:52;;;;;;;16.40;4.60;;;;;;;4.80;85.80;101254.89;105641;1271;25366;-64
2022/04/16 01:16:24;;;;;;;14.20;5.00;;;;;;;4.81;85.93;101262.63;105761;1271;22543;-63
2022/04/16 01:18:55;;;;;;;15.10;5.00;;;;;;;4.82;85.83;101268.63;105657;1271;24444;-64
2022/04/16 01:21:28;;;;;;;13.60;4.20;;;;;;;4.81;86.00;101273.69;105922;1271;25287;-64
2022/04/16 01:24:00;;;;;;;15.00;4.80;;;;;;;4.81;85.48;101274.73;105712;1271;22543;-64
2022/04/16 01:26:31;;;;;;;12.50;3.90;;;;;;;4.79;85.24;101282.41;105781;1271;22585;-64
2022/04/16 01:29:04;;;;;;;12.60;3.90;;;;;;;4.77;85.31;101283.13;105629;1271;22551;-63
2022/04/16 01:31:35;;;;;;;13.30;3.80;;;;;;;4.75;85.09;101283.73;105728;1271;23049;-63
2022/04/16 01:34:08;;;;;;;14.70;4.10;;;;;;;4.77;85.09;101289.07;105681;1271;22549;-63
2022/04/16 01:36:40;;;;;;;11.80;3.20;;;;;;;4.78;85.02;101289.14;105785;1271;22991;-64
2022/04/16 01:39:11;;;;;;;8.50;2.10;;;;;;;4.76;84.32;101293.98;105684;1271;22541;-63
2022/04/16 01:41:43;;;;;;;10.00;2.60;;;;;;;4.71;83.99;101290.41;106023;1271;22537;-63
2022/04/16 01:44:15;;;;;;;9.00;2.30;;;;;;;4.68;84.20;101294.88;105718;1271;22547;-64
2022/04/16 01:46:48;;;;;;;9.10;2.90;;;;;;;4.69;84.07;101292.80;105669;1273;22528;-63
2022/04/16 01:49:20;;;;;;;10.40;3.00;;;;;;;4.70;83.85;101296.83;105672;1272;25235;-64
2022/04/16 01:51:51;;;;;;;9.00;2.00;;;;;;;4.70;83.58;101297.55;105896;1272;24987;-63
2022/04/16 01:54:23;;;;;;;9.90;2.10;;;;;;;4.66;83.36;101300.83;105729;1271;25362;-63
2022/04/16 01:56:54;;;;;;;11.00;2.00;;;;;;;4.63;83.37;101306.88;105675;1273;22544;-64
2022/04/16 01:59:27;;;;;;;15.90;2.40;;;;;;;4.59;83.17;101310.00;106066;1271;22599;-63
2022/04/16 02:01:59;;;;;;;10.00;2.20;;;;;;;4.53;83.37;101308.80;105948;1271;22525;-63
2022/04/16 02:04:31;;;;;;;7.60;2.00;;;;;;;4.52;83.42;101312.60;105756;1271;22553;-63
2022/04/16 02:07:03;;;;;;;8.90;2.10;;;;;;;4.51;83.24;101314.83;105779;1273;24549;-63
2022/04/16 02:09:34;;;;;;;5.50;1.50;;;;;;;4.45;82.46;101315.61;105924;1272;24290;-63
2022/04/16 02:12:07;;;;;;;10.00;1.70;;;;;;;4.44;82.79;101314.36;105741;1273;22540;-63
2022/04/16 02:14:38;;;;;;;8.90;1.70;;;;;;;4.43;82.12;101318.79;105639;1271;25494;-63
2022/04/16 02:17:10;;;;;;;6.40;2.00;;;;;;;4.40;82.30;101318.81;105749;1272;25282;-63
2022/04/16 02:19:42;;;;;;;5.80;1.40;;;;;;;4.39;82.51;101320.73;105733;1271;26081;-64
2022/04/16 02:22:14;;;;;;;9.30;1.90;;;;;;;4.37;82.08;101326.35;105727;1271;22792;-62
2022/04/16 02:24:46;;;;;;;6.10;1.40;;;;;;;4.34;82.38;101325.77;105856;1271;25753;-63
2022/04/16 02:27:20;;;;;;;7.40;1.70;;;;;;;4.33;82.42;101327.58;105754;1271;22568;-63
2022/04/16 02:29:51;;;;;;;11.30;1.80;;;;;;;4.32;82.29;101332.10;105701;1273;22547;-63
2022/04/16 02:32:26;;;;;;;6.10;1.60;;;;;;;4.29;82.49;101331.96;105651;1271;22598;-62
2022/04/16 02:34:58;;;;;;;7.10;1.60;;;;;;;4.28;82.32;101328.03;105929;1271;25313;-62
2022/04/16 02:37:29;;;;;;;9.70;2.00;;;;;;;4.27;82.34;101334.11;105815;1271;23059;-62
2022/04/16 02:40:00;;;;;;;6.90;1.50;;;;;;;4.29;82.47;101333.23;105750;1273;22534;-62
2022/04/16 02:42:33;;;;;;;7.50;2.00;;;;;;;4.30;82.05;101333.46;105852;1271;24328;-63
2022/04/16 02:48:07;;;;;;;4.90;1.30;;;;;;;4.24;81.65;101331.48;105409;1276;22563;-63
2022/04/16 02:50:39;;;;;;;6.10;1.60;;;;;;;4.22;81.69;101332.58;105485;1279;25621;-63
2022/04/16 02:53:11;;;;;;;5.40;1.60;;;;;;;4.21;81.44;101334.17;105328;1277;22843;-62
2022/04/16 02:55:46;;;;;;;5.00;1.50;;;;;;;4.19;81.00;101329.67;105364;1279;23106;-62
2022/04/16 02:58:19;;;;;;;6.40;1.50;;;;;;;4.16;81.02;101326.33;105326;1278;25702;-62
2022/04/16 03:00:50;;;;;;;6.00;1.70;;;;;;;4.16;81.23;101327.66;105420;1277;24253;-62
2022/04/16 03:03:22;;;;;;;7.20;1.70;;;;;;;4.15;80.80;101318.68;105453;1279;22664;-62
2022/04/16 03:05:53;;;;;;;8.70;1.40;;;;;;;4.10;80.83;101321.64;105383;1279;23043;-62
2022/04/16 03:08:25;;;;;;;5.70;1.20;;;;;;;4.09;80.83;101316.60;105489;1279;23999;-62
2022/04/16 03:10:57;;;;;;;6.60;1.20;;;;;;;4.05;80.52;101317.59;105308;1278;25849;-62
2022/04/16 03:13:29;;;;;;;5.30;1.40;;;;;;;4.02;80.69;101321.64;105402;1278;22550;-62
2022/04/16 03:18:50;;;;;;;6.10;1.40;;;;;;;3.93;80.24;101321.95;105396;1278;22532;-62
2022/04/16 03:21:22;;;;;;;9.40;2.20;;;;;;;3.87;80.02;101325.80;105335;1279;25540;-62
2022/04/16 03:23:56;;;;;;;6.30;1.40;;;;;;;3.84;80.41;101334.34;105428;1274;24271;-62
2022/04/16 03:26:28;;;;;;;8.50;1.50;;;;;;;3.82;80.46;101336.48;105625;1271;25415;-62
2022/04/16 03:28:59;;;;;;;6.30;1.60;;;;;;;3.78;80.31;101336.35;105808;1273;23546;-62
2022/04/16 03:31:31;;;;;;;8.80;1.90;;;;;;;3.78;80.30;101346.08;105781;1271;22694;-61
2022/04/16 03:34:03;;;;;;;8.30;1.50;;;;;;;3.77;80.08;101350.02;105713;1272;22603;-61
2022/04/16 03:36:34;;;;;;;4.80;1.10;;;;;;;3.75;80.12;101355.02;105924;1271;24332;-61
2022/04/16 03:39:06;;;;;;;8.60;1.70;;;;;;;3.73;80.05;101367.81;105739;1271;25347;-61
2022/04/16 03:41:38;;;;;;;5.20;1.10;;;;;;;3.71;80.29;101373.50;106080;1271;25321;-61
2022/04/16 03:44:09;;;;;;;5.50;1.20;;;;;;;3.69;80.03;101382.05;105733;1271;22535;-61
2022/04/16 03:46:41;;;;;;;6.70;1.50;;;;;;;3.67;80.17;101387.41;105884;1272;25408;-62
2022/04/16 03:49:12;;;;;;;5.90;1.20;;;;;;;3.66;80.19;101387.02;105903;1273;24287;-61
2022/04/16 03:51:44;;;;;;;10.60;1.60;;;;;;;3.66;80.00;101392.30;105777;1271;22609;-61
2022/04/16 04:00:03;;;;;;;5.80;1.40;;;;;;;3.63;79.66;101396.67;105702;1271;22573;-61
2022/04/16 04:02:38;;;;;;;4.40;1.20;;;;;;;3.63;80.00;101401.71;105928;1271;22545;-61
2022/04/16 04:05:11;;;;;;;6.30;1.00;;;;;;;3.62;79.80;101403.46;105911;1271;23065;-61
2022/04/16 04:07:43;;;;;;;5.70;1.10;;;;;;;3.60;79.63;101401.97;105816;1272;23514;-62
2022/04/16 04:10:17;;;;;;;5.40;1.10;;;;;;;3.57;79.65;101405.77;105805;1272;22528;-61
2022/04/16 04:12:49;;;;;;;4.00;1.00;;;;;;;3.58;79.86;101409.55;105787;1271;22526;-61
2022/04/16 04:15:23;;;;;;;9.90;1.40;;;;;;;3.58;79.95;101412.55;105719;1271;22673;-61
2022/04/16 04:17:55;;;;;;;5.40;1.50;;;;;;;3.62;79.89;101415.92;105742;1272;25382;-61
2022/04/16 04:20:26;;;;;;;6.70;1.40;;;;;;;3.60;79.36;101419.88;105794;1271;22607;-61
2022/04/16 04:22:59;;;;;;;8.90;1.50;;;;;;;3.56;79.44;101424.64;105728;1271;24239;-61
2022/04/16 04:25:31;;;;;;;6.10;1.50;;;;;;;3.52;79.60;101430.02;106068;1272;22533;-61
2022/04/16 04:28:04;;;;;;;6.50;1.20;;;;;;;3.54;79.66;101435.45;105887;1271;25242;-61
2022/04/16 04:30:36;;;;;;;7.10;2.00;;;;;;;3.56;79.60;101438.14;105767;1271;23442;-61
2022/04/16 04:33:08;;;;;;;7.10;1.50;;;;;;;3.55;79.58;101448.47;105754;1271;25500;-61
2022/04/16 04:35:40;;;;;;;5.90;1.50;;;;;;;3.53;79.67;101452.66;105663;1272;22705;-61
2022/04/16 04:38:12;;;;;;;5.00;1.30;;;;;;;3.53;79.71;101461.73;106059;1271;22611;-63
2022/04/16 04:40:43;;;;;;;5.70;1.40;;;;;;;3.53;79.74;101465.05;105754;1271;24234;-63
2022/04/16 04:43:15;;;;;;;6.00;1.40;;;;;;;3.52;79.64;101472.14;105693;1271;22705;-62
2022/04/16 04:45:48;;;;;;;4.50;1.20;;;;;;;3.52;79.65;101471.92;105918;1271;26635;-60
2022/04/16 04:48:20;;;;;;;7.90;1.40;;;;;;;3.52;79.65;101473.66;106027;1271;22620;-60
2022/04/16 04:50:52;;;;;;;6.10;1.50;;;;;;;3.52;79.73;101478.21;105707;1271;25424;-60
2022/04/16 04:53:24;;;;;;;8.10;1.50;;;;;;;3.51;79.80;101479.33;106091;1271;23001;-60
2022/04/16 04:55:55;;;;;;;6.50;1.50;;;;;;;3.53;79.89;101479.80;105870;1271;22580;-60
2022/04/16 04:58:27;;;;;;;7.30;1.90;;;;;;;3.54;79.82;101486.58;105853;1271;22554;-60
2022/04/16 05:00:59;;;;;;;9.90;1.70;;;;;;;3.55;79.87;101488.46;105762;1271;24441;-61
2022/04/16 05:03:31;;;;;;;10.70;2.10;;;;;;;3.56;80.01;101486.48;106044;1271;22552;-60
2022/04/16 05:06:03;;;;;;;8.80;1.60;;;;;;;3.54;79.86;101486.50;105669;1272;22548;-60
2022/04/16 05:08:35;;;;;;;7.80;1.40;;;;;;;3.54;79.99;101491.30;106543;1271;22738;-62
2022/04/16 05:11:09;;;;;;;13.40;1.60;;;;;;;3.56;80.24;101492.95;105680;1274;22650;-60
2022/04/16 05:13:41;;;;;;;5.90;1.50;;;;;;;3.56;79.91;101495.25;105691;1273;24303;-59
2022/04/16 05:16:13;;;;;;;6.80;1.40;;;;;;;3.54;79.66;101499.05;105669;1274;22565;-59
2022/04/16 05:18:44;;;;;;;7.90;1.60;;;;;;;3.51;79.48;101503.71;105885;1273;22959;-60
2022/04/16 05:21:16;;;;;;;7.60;1.40;;;;;;;3.49;79.77;101509.08;105692;1273;22567;-60
2022/04/16 05:23:47;;;;;;;10.00;1.80;;;;;;;3.49;79.94;101517.13;105886;1273;24243;-60
2022/04/16 05:26:19;;;;;;;8.50;1.50;;;;;;;3.48;79.96;101520.83;105623;1273;22535;-59
2022/04/16 05:28:50;;;;;;;8.10;1.70;;;;;;;3.47;80.01;101522.27;105590;1273;25308;-61
2022/04/16 05:31:24;;;;;;;8.00;1.50;;;;;;;3.47;79.94;101527.45;105710;1273;22548;-60
2022/04/16 05:36:44;;;;;;;9.00;1.70;;;;;;;3.45;79.84;101533.38;105454;1273;25366;-59
2022/04/16 05:39:16;;;;;;;9.80;2.10;;;;;;;3.44;80.01;101534.80;106299;1273;22660;-60
2022/04/16 05:41:48;;;;;;;7.60;1.50;;;;;;;3.45;80.02;101533.77;105327;1274;22697;-58
2022/04/16 05:44:19;;;;;;;12.00;1.90;;;;;;;3.45;79.98;101538.04;105612;1274;24362;-60
2022/04/16 05:46:51;;;;;;;10.40;2.00;;;;;;;3.47;80.15;101541.19;105518;1274;22621;-61
2022/04/16 05:49:22;;;;;;;7.10;1.90;;;;;;;3.46;80.12;101539.52;105360;1273;25543;-62
2022/04/16 05:51:53;;;;;;;6.80;1.30;;;;;;;3.46;80.15;101539.29;105757;1273;26264;-60
2022/04/16 05:54:26;;;;;;;10.50;2.10;;;;;;;3.46;80.16;101540.56;108045;1274;24468;-60
2022/04/16 05:56:58;;;;;;;12.80;2.70;;;;;;;3.47;80.14;101542.69;105639;1273;25354;-61
2022/04/16 05:59:30;;;;;;;7.20;1.70;;;;;;;3.47;80.18;101544.33;107206;1273;22552;-62
2022/04/16 06:02:02;;;;;;;8.60;1.40;;;;;;;3.48;80.35;101542.44;105684;1273;22541;-62
2022/04/16 06:04:33;;;;;;;8.10;2.70;;;;;;;3.51;80.20;101546.55;105523;1273;25408;-61
2022/04/16 06:07:06;;;;;;;9.80;1.80;;;;;;;3.54;80.11;101543.77;105715;1273;22622;-61
2022/04/16 06:09:38;;;;;;;9.40;1.90;;;;;;;3.56;80.11;101547.46;105603;1273;26164;-61
2022/04/16 06:12:11;;;;;;;6.90;2.10;;;;;;;3.57;80.25;101550.23;105668;1273;24066;-60
2022/04/16 06:14:43;;;;;;;10.50;2.10;;;;;;;3.58;80.19;101549.90;105386;1275;22624;-60
2022/04/16 06:17:17;;;;;;;8.10;2.20;;;;;;;3.60;80.26;101555.75;105452;1273;25357;-60
2022/04/16 06:19:48;;;;;;;9.50;3.10;;;;;;;3.61;80.30;101553.83;105734;1273;22636;-59
2022/04/16 06:22:20;;;;;;;9.50;2.20;;;;;;;3.61;80.24;101560.86;105500;1273;22755;-60
2022/04/16 06:24:52;;;;;;;9.00;2.10;;;;;;;3.61;80.21;101562.75;105350;1273;22548;-62
2022/04/16 06:27:23;;;;;;;9.40;2.30;;;;;;;3.62;80.33;101565.34;105731;1273;24013;-60
2022/04/16 06:29:56;;;;;;;9.30;2.60;;;;;;;3.62;80.08;101565.90;105410;1273;22566;-61
2022/04/16 06:32:28;;;;;;;8.80;1.90;;;;;;;3.63;80.36;101568.34;105622;1274;24357;-59
2022/04/16 06:35:00;;;;;;;10.50;2.00;;;;;;;3.64;80.32;101576.63;105510;1274;25474;-62
2022/04/16 06:37:32;;;;;;;8.80;2.90;;;;;;;3.66;80.21;101577.02;105543;1274;22555;-61
2022/04/16 06:40:05;;;;;;;9.80;2.30;;;;;;;3.68;80.40;101577.16;105390;1274;24405;-60
2022/04/16 06:42:37;;;;;;;10.50;2.10;;;;;;;3.71;80.41;101580.17;105437;1274;22842;-61
2022/04/16 06:45:11;;;;;;;11.70;2.70;;;;;;;3.71;79.97;101577.48;105415;1273;22590;-61
2022/04/16 06:47:43;;;;;;;9.40;2.00;;;;;;;3.72;80.18;101575.27;105687;1273;22693;-61
2022/04/16 06:50:14;;;;;;;10.40;2.50;;;;;;;3.78;80.33;101576.02;106846;1273;25860;-59
2022/04/16 06:52:46;;;;;;;9.00;2.80;;;;;;;3.84;80.33;101577.18;105682;1274;23275;-61
2022/04/16 06:55:18;;;;;;;9.60;2.20;;;;;;;3.90;80.30;101578.11;105649;1274;22563;-60
2022/04/16 06:57:49;;;;;;;8.90;1.70;;;;;;;3.94;79.78;101583.94;105729;1273;22677;-61
2022/04/16 07:00:23;;;;;;;7.80;2.10;;;;;;;3.98;80.02;101585.89;105968;1273;24312;-62
2022/04/16 07:02:54;;;;;;;8.40;2.60;;;;;;;4.04;80.24;101585.06;105619;1273;25307;-61
2022/04/16 07:05:26;;;;;;;12.90;2.30;;;;;;;4.13;80.08;101593.48;105889;1273;22539;-62
2022/04/16 07:07:58;;;;;;;11.30;2.80;;;;;;;4.19;80.13;101593.84;105675;1273;22534;-60
2022/04/16 07:10:29;;;;;;;10.70;2.00;;;;;;;4.25;80.04;101591.44;105887;1273;25395;-61
2022/04/16 07:13:01;;;;;;;8.40;2.10;;;;;;;4.33;79.56;101593.13;105723;1274;22555;-62
2022/04/16 07:15:33;;;;;;;7.70;1.90;;;;;;;4.39;79.48;101600.69;105651;1274;22558;-60
2022/04/16 07:18:07;;;;;;;6.80;1.60;;;;;;;4.47;79.47;101596.69;106052;1274;22563;-59
2022/04/16 07:20:38;;;;;;;9.80;2.20;;;;;;;4.51;78.37;101608.19;105844;1273;22647;-60
2022/04/16 07:23:10;;;;;;;8.60;1.90;;;;;;;4.55;78.35;101604.53;105821;1274;22613;-61
2022/04/16 07:25:41;;;;;;;7.60;1.50;;;;;;;4.61;77.80;101606.38;105834;1273;25428;-61
2022/04/16 07:28:21;;;;;;;6.80;2.00;;;;;;;4.68;77.81;101601.84;105701;1274;22535;-62
2022/04/16 07:30:53;;;;;;;5.40;1.70;;;;;;;4.79;77.34;101603.42;105562;1274;24355;-61
2022/04/16 07:33:29;;;;;;;8.00;2.00;;;;;;;4.89;77.64;101602.45;106033;1273;25461;-61
2022/04/16 07:36:00;;;;;;;8.00;1.50;;;;;;;5.02;77.81;101610.67;105447;1274;22538;-62
2022/04/16 07:38:32;;;;;;;8.80;2.00;;;;;;;5.07;76.78;101599.22;105854;1274;22790;-62
2022/04/16 07:41:04;;;;;;;5.60;1.40;;;;;;;5.07;76.35;101605.86;105402;1274;22655;-61
2022/04/16 07:43:35;;;;;;;5.60;1.50;;;;;;;5.07;76.77;101611.48;105619;1273;22973;-62
2022/04/16 07:46:08;;;;;;;7.50;1.70;;;;;;;5.11;76.49;101614.61;105654;1274;22612;-62
2022/04/16 07:48:39;;;;;;;4.90;1.50;;;;;;;5.21;75.91;101615.40;105685;1274;22550;-62
2022/04/16 07:51:11;;;;;;;6.50;2.00;;;;;;;5.33;75.92;101615.69;106027;1274;22531;-61
2022/04/16 07:53:43;;;;;;;4.10;1.20;;;;;;;5.40;75.60;101623.84;105670;1273;22580;-62
2022/04/16 07:56:14;;;;;;;5.40;1.50;;;;;;;5.40;74.43;101620.77;105316;1274;25619;-59
2022/04/16 07:58:46;;;;;;;5.10;1.40;;;;;;;5.38;74.68;101624.24;105523;1273;22686;-59
2022/04/16 08:01:18;;;;;;;7.40;1.80;;;;;;;5.34;73.67;101620.98;105606;1274;24444;-62
2022/04/16 08:03:50;;;;;;;5.50;1.50;;;;;;;5.33;74.36;101625.02;105704;1273;22530;-61
2022/04/16 08:06:21;;;;;;;4.70;1.50;;;;;;;5.41;74.08;101628.66;105735;1273;25423;-63
2022/04/16 08:08:53;;;;;;;5.80;1.40;;;;;;;5.48;73.39;101628.18;105569;1274;25495;-62
2022/04/16 08:11:24;;;;;;;5.40;1.80;;;;;;;5.54;72.95;101631.54;105483;1274;22569;-62
2022/04/16 08:13:56;;;;;;;6.50;1.50;;;;;;;5.60;72.88;101624.02;105606;1274;22587;-62
2022/04/16 08:16:28;;;;;;;6.50;1.20;;;;;;;5.68;73.83;101629.33;105522;1274;23976;-61
2022/04/16 08:18:59;;;;;;;5.70;1.30;;;;;;;5.80;73.73;101624.45;105559;1274;22760;-60
2022/04/16 08:21:36;;;;;;;5.50;1.30;;;;;;;5.93;72.78;101631.52;105666;1275;24285;-61
2022/04/16 08:24:22;;;;;;;6.00;1.80;;;;;;;6.08;71.95;101628.43;105489;1275;24218;-62
2022/04/16 08:26:54;;;;;;;5.40;1.30;;;;;;;6.17;72.59;101634.48;105831;1274;22638;-60
2022/04/16 08:29:27;;;;;;;5.90;1.30;;;;;;;6.22;72.26;101635.77;105661;1274;22595;-60
2022/04/16 08:31:59;;;;;;;6.10;1.60;;;;;;;6.22;70.65;101639.58;105842;1274;23038;-62
2022/04/16 08:34:30;;;;;;;3.20;0.80;;;;;;;6.19;69.73;101641.27;105517;1274;25341;-60
2022/04/16 08:37:02;;;;;;;6.20;1.20;;;;;;;6.16;70.20;101635.36;105366;1275;22726;-60
2022/04/16 08:39:33;;;;;;;5.20;0.90;;;;;;;6.16;69.01;101635.62;105370;1274;22558;-59
2022/04/16 08:42:05;;;;;;;4.10;1.20;;;;;;;6.12;69.07;101637.00;105555;1274;24427;-60
2022/04/16 08:44:39;;;;;;;5.50;1.20;;;;;;;6.16;69.77;101639.66;105592;1274;22586;-61
2022/04/16 08:47:12;;;;;;;5.50;1.30;;;;;;;6.24;69.91;101636.45;105570;1274;25568;-62
2022/04/16 08:49:44;;;;;;;4.80;1.40;;;;;;;6.39;70.58;101635.15;105479;1274;25344;-60
2022/04/16 08:52:16;;;;;;;5.00;1.20;;;;;;;6.48;69.80;101640.19;105506;1274;26180;-60
2022/04/16 08:54:48;;;;;;;8.40;1.50;;;;;;;6.47;69.56;101644.31;105626;1274;25132;-60
2022/04/16 08:57:19;;;;;;;5.50;0.90;;;;;;;6.48;68.15;101648.66;105545;1274;22538;-60
2022/04/16 08:59:54;;;;;;;3.40;0.90;;;;;;;6.53;68.50;101645.73;105848;1274;24282;-62
2022/04/16 09:02:29;;;;;;;6.50;1.50;;;;;;;6.67;68.40;101646.02;108063;1272;26356;-63
2022/04/16 09:05:09;;;;;;;4.50;0.90;;;;;;;6.77;67.45;101646.27;105617;1274;24322;-61
2022/04/16 09:07:48;;;;;;;3.50;1.00;;;;;;;6.90;67.33;101645.91;105390;1274;23265;-60
2022/04/16 09:10:20;;;;;;;5.10;1.00;;;;;;;7.08;67.17;101645.86;105353;1274;22688;-60
2022/04/16 09:12:54;;;;;;;5.50;1.10;;;;;;;7.14;66.93;101650.67;105703;1275;22551;-61
2022/04/16 09:15:28;;;;;;;4.60;0.90;;;;;;;7.15;67.23;101646.30;105592;1274;25334;-61
2022/04/16 09:18:02;;;;;;;6.20;1.10;;;;;;;7.14;66.64;101649.31;105641;1274;24442;-60
2022/04/16 09:20:35;;;;;;;3.80;1.00;;;;;;;7.17;67.00;101650.07;105474;1274;22590;-60
2022/04/16 09:23:18;;;;;;;5.40;0.80;;;;;;;7.28;66.37;101650.36;105546;1274;25317;-60
2022/04/16 09:25:50;;;;;;;6.30;1.10;;;;;;;7.29;65.49;101654.48;105703;1274;25377;-60
2022/04/16 09:28:22;;;;;;;2.80;0.70;;;;;;;7.34;65.92;101658.44;105732;1274;22589;-61
2022/04/16 09:30:55;;;;;;;3.90;0.80;;;;;;;7.43;64.47;101656.30;105551;1274;25305;-60
2022/04/16 09:33:37;;;;;;;4.80;0.90;;;;;;;7.46;64.70;101663.64;105565;1274;22596;-62
2022/04/16 09:36:08;;;;;;;4.10;0.70;;;;;;;7.46;63.79;101664.75;105510;1274;25288;-62
2022/04/16 09:38:42;;;;;;;3.50;0.80;;;;;;;7.47;63.90;101662.49;105560;1274;25518;-62
2022/04/16 09:41:17;;;;;;;2.70;0.70;;;;;;;7.52;63.36;101660.36;105604;1274;24226;-62
2022/04/16 09:43:48;;;;;;;4.10;0.70;;;;;;;7.57;61.86;101656.14;105632;1274;22569;-62
2022/04/16 09:46:21;;;;;;;11.10;2.30;;;;;;;7.59;60.32;101659.98;105694;1274;25497;-62
2022/04/16 09:48:56;;;;;;;13.10;1.30;;;;;;;7.60;62.27;101662.20;105793;1274;22658;-60
2022/04/16 09:51:33;;;;;;;4.10;1.00;;;;;;;7.71;62.79;101656.02;105636;1273;24335;-60
2022/04/16 09:54:06;;;;;;;2.80;0.80;;;;;;;7.81;63.33;101658.21;105729;1274;22671;-60
2022/04/16 09:56:40;;;;;;;2.10;0.70;;;;;;;7.85;63.20;101664.48;105718;1274;22637;-60
2022/04/16 09:59:17;;;;;;;2.50;0.60;;;;;;;7.82;62.68;101666.46;105547;1274;22573;-65
2022/04/16 10:01:49;;;;;;;5.80;0.80;;;;;;;7.79;61.59;101667.02;105628;1274;22628;-60
2022/04/16 10:04:22;;;;;;;5.00;0.80;;;;;;;7.76;61.81;101668.10;108177;1273;24242;-61
2022/04/16 10:06:53;;;;;;;5.70;0.90;;;;;;;7.80;61.72;101666.48;107257;1273;26624;-60
2022/04/16 10:09:27;;;;;;;3.20;0.80;;;;;;;7.85;61.08;101667.29;105790;1274;25343;-60
2022/04/16 10:14:56;;;;;;;3.20;0.60;;;;;;;7.97;60.96;101665.55;105638;1274;25691;-61
2022/04/16 10:17:39;;;;;;;5.00;0.60;;;;;;;8.04;61.54;101663.81;105644;1274;22547;-60
2022/04/16 10:20:12;;;;;;;1.90;0.40;;;;;;;8.12;60.80;101668.33;105449;1274;23101;-61
2022/04/16 10:22:55;;;;;;;2.30;0.50;;;;;;;8.13;58.76;101669.92;105886;1274;23175;-62
2022/04/16 10:25:35;;;;;;;2.20;0.60;;;;;;;8.12;59.18;101669.06;105504;1274;22620;-61
2022/04/16 10:28:09;;;;;;;4.30;0.60;;;;;;;8.16;58.43;101667.70;105871;1274;24370;-61
2022/04/16 10:30:43;;;;;;;2.20;0.50;;;;;;;8.22;60.31;101664.58;105595;1274;24419;-60
2022/04/16 10:33:21;;;;;;;7.30;0.60;;;;;;;8.32;58.41;101666.45;105525;1274;22551;-62
2022/04/16 10:35:56;;;;;;;4.00;0.60;;;;;;;8.39;58.94;101666.71;105615;1274;22583;-61
2022/04/16 10:38:32;;;;;;;1.80;0.40;;;;;;;8.41;57.78;101666.73;105462;1274;22648;-62
2022/04/16 10:41:13;;;;;;;1.90;0.60;;;;;;;8.43;57.82;101662.63;105615;1274;22550;-61
2022/04/16 10:43:52;;;;;;;;;;;;;;;8.48;58.76;101667.95;105609;1274;22546;-61
2022/04/16 10:46:24;;;;;;;4.20;1.00;;;;;;;8.56;57.74;101667.60;105168;1274;22579;-62
2022/04/16 10:48:57;;;;;;;4.60;0.90;;;;;;;8.62;57.32;101673.11;105587;1274;23358;-61
2022/04/16 10:51:36;;;;;;;3.50;0.70;;;;;;;8.69;57.67;101668.19;105655;1275;25345;-62
2022/04/16 10:54:12;;;;;;;4.10;0.90;;;;;;;8.74;57.06;101674.67;105679;1274;26477;-62
2022/04/16 10:56:53;;;;;;;3.70;0.90;;;;;;;8.75;56.02;101676.26;105656;1274;26579;-62
2022/04/16 10:59:38;;;;;;;7.60;1.30;;;;;;;8.79;57.25;101675.45;105488;1274;22742;-62
2022/04/16 11:02:23;;;;;;;3.00;0.70;;;;;;;8.89;57.12;101681.25;106026;1273;24943;-59
2022/04/16 11:05:02;;;;;;;2.70;0.50;;;;;;;8.97;56.43;101683.16;105497;1274;22623;-61
2022/04/16 11:07:35;;;;;;;3.00;0.80;;;;;;;8.95;55.86;101687.56;105854;1274;22601;-61
2022/04/16 11:10:09;;;;;;;3.90;0.90;;;;;;;8.97;56.09;101689.27;105565;1274;22536;-61
2022/04/16 11:12:43;;;;;;;2.60;0.70;;;;;;;9.01;57.10;101693.33;105835;1274;25386;-63
2022/04/16 11:15:23;;;;;;;2.50;0.70;;;;;;;8.97;56.86;101692.91;105574;1274;22574;-61
2022/04/16 11:17:58;;;;;;;4.90;0.60;;;;;;;8.90;55.30;101702.95;105693;1274;22568;-61
2022/04/16 11:20:31;;;;;;;5.50;0.90;;;;;;;8.89;55.48;101698.60;105520;1274;22529;-61
2022/04/16 11:23:10;;;;;;;3.20;0.90;;;;;;;8.95;56.96;101699.27;105619;1274;25342;-60
2022/04/16 11:34:17;;;;;;;7.10;1.00;;;;;;;9.03;56.21;101694.86;105519;1274;24414;-60
2022/04/16 11:36:52;;;;;;;5.80;1.40;;;;;;;9.12;55.78;101696.48;105567;1274;22563;-61
2022/04/16 11:39:25;;;;;;;5.80;1.00;;;;;;;9.19;55.44;101706.83;105736;1274;22594;-62
2022/04/16 11:41:58;;;;;;;6.10;1.10;;;;;;;9.21;54.35;101704.23;105682;1274;24290;-63
2022/04/16 11:44:41;;;;;;;3.60;0.90;;;;;;;9.16;53.98;101704.90;105547;1274;22564;-61
2022/04/16 11:47:14;;;;;;;2.60;0.70;;;;;;;9.09;54.11;101702.20;105691;1274;22541;-62
2022/04/16 11:49:51;;;;;;;3.50;0.80;;;;;;;9.09;54.55;101698.88;105508;1274;22767;-62
2022/04/16 11:52:28;;;;;;;4.50;1.00;;;;;;;9.11;54.31;101705.75;105505;1274;22618;-62
2022/04/16 11:55:10;;;;;;;5.70;1.00;;;;;;;9.19;55.12;101699.82;105773;1274;22540;-63
2022/04/16 11:57:47;;;;;;;4.70;0.90;;;;;;;9.24;55.04;101700.02;105523;1274;26904;-62
2022/04/16 12:00:21;;;;;;;3.50;0.90;;;;;;;9.22;53.35;101708.84;105499;1273;25835;-62
2022/04/16 12:02:57;;;;;;;4.40;1.00;;;;;;;9.14;53.10;101715.29;105788;1273;26164;-62
2022/04/16 12:05:30;;;;;;;4.00;1.00;;;;;;;9.13;52.02;101708.07;105699;1274;23982;-61
2022/04/16 12:08:03;;;;;;;5.90;1.00;;;;;;;9.13;51.66;101710.15;105853;1274;22538;-62
2022/04/16 12:10:37;;;;;;;5.70;1.10;;;;;;;9.14;53.84;101713.80;105489;1274;24310;-62
2022/04/16 12:13:14;;;;;;;4.50;1.00;;;;;;;9.16;54.64;101717.65;105478;1274;22560;-61
2022/04/16 12:15:47;;;;;;;7.20;1.00;;;;;;;9.13;52.72;101717.80;105568;1273;25519;-61